Terminal Aerodrome Forecast
Issued by NWS

Home | Current Version | Previous Version | Text Only | Print | Product List | Glossary On
Versions: 1 2 3 4 5 6 7 8 9 10 11 12
678
FTUS45 KRIW 010533
TAFBPI
TAF
KBPI 010533Z 0106/0206 20008KT P6SM SCT040
     FM011000 17004KT P6SM VCFG FEW003 SCT040
     FM011600 17008KT P6SM SCT040
     FM020200 19007KT P6SM SCT250=

USA.gov is the U.S. government's official web portal to all federal, state and local government web resources and services.